< < Back
Terminal Aerodrome Forecast


Current Version              Previous Versions:   1  2  3  4  5  6  7  8  9  

Terminal Aerodrome Forecast

461
FTUS42 KFFC 271125
TAFAHN
TAF
KAHN 271125Z 2712/2812 07004KT P6SM BKN030 OVC050
     FM271500 02005KT P6SM SCT035 SCT200
     FM271900 33005KT P6SM FEW050
     FM280200 00000KT P6SM SCT250
     FM280500 04007KT P6SM SCT120=

Latest METAR

007
SAUS70 KWBC 271800
MTRAHN
METAR KAHN 271751Z 31009KT 3SM HZ FEW002 FEW060 23/08 A2984 RMK AO2
SLP102 T02280078 10228 20133 56020


USA.gov is the U.S. government's official web portal to all federal, state and local government web resources and services.